KLM15LR ENZV-EHAM
Flight info
| Callsign | KLM15LR |
|---|---|
| Flight time | N/A |
| Altitude | 38000 |
| Route | RUMOG DCT ATNAK DCT TIPAN DCT WECOW DCT LARDI/N0450F370 DCT TOPPA |
| Aircraft | A321/M-SDE3FGHIRWY/LB1 |
Departure
| Time | 2026-04-21 07:55 |
|---|---|
| Airport | Stavanger Airport, Sola (ENZV) |
Arrival
| Time | N/A |
|---|---|
| Airport | Amsterdam Airport Schiphol (EHAM) |
| Time | Latitude | Longitude | Altitude | Speed | Heading |
|---|---|---|---|---|---|
| 2026-04-21 07:35 | 58.88355 | 5.63014 | 33 ft | 0 kts | 224° |
| 2026-04-21 07:44 | 58.88356 | 5.63014 | 34 ft | 1 kts | 224° |
| 2026-04-21 07:44 | 58.88365 | 5.63032 | 34 ft | 3 kts | 224° |
| 2026-04-21 07:45 | 58.88380 | 5.63060 | 34 ft | 3 kts | 224° |
| 2026-04-21 07:45 | 58.88394 | 5.63086 | 33 ft | 3 kts | 217° |
| 2026-04-21 07:45 | 58.88411 | 5.63107 | 31 ft | 3 kts | 205° |
| 2026-04-21 07:45 | 58.88430 | 5.63121 | 30 ft | 3 kts | 191° |
| 2026-04-21 07:46 | 58.88447 | 5.63125 | 30 ft | 1 kts | 179° |
| 2026-04-21 07:46 | 58.88452 | 5.63125 | 30 ft | 0 kts | 179° |
| 2026-04-21 07:48 | 58.88425 | 5.63146 | 32 ft | 6 kts | 145° |
| 2026-04-21 07:48 | 58.88396 | 5.63195 | 34 ft | 5 kts | 139° |
| 2026-04-21 07:48 | 58.88344 | 5.63243 | 34 ft | 11 kts | 163° |
| 2026-04-21 07:49 | 58.88287 | 5.63305 | 35 ft | 9 kts | 121° |
| 2026-04-21 07:49 | 58.88248 | 5.63424 | 35 ft | 12 kts | 158° |
| 2026-04-21 07:49 | 58.88169 | 5.63434 | 36 ft | 11 kts | 179° |
| 2026-04-21 07:49 | 58.88090 | 5.63436 | 37 ft | 13 kts | 179° |
| 2026-04-21 07:50 | 58.87991 | 5.63407 | 36 ft | 14 kts | 204° |
| 2026-04-21 07:50 | 58.87904 | 5.63333 | 38 ft | 13 kts | 204° |
| 2026-04-21 07:50 | 58.87819 | 5.63289 | 39 ft | 12 kts | 184° |
| 2026-04-21 07:50 | 58.87739 | 5.63290 | 40 ft | 11 kts | 179° |
| 2026-04-21 07:51 | 58.87648 | 5.63294 | 39 ft | 19 kts | 179° |
| 2026-04-21 07:51 | 58.87512 | 5.63298 | 40 ft | 19 kts | 179° |
| 2026-04-21 07:51 | 58.87382 | 5.63301 | 41 ft | 19 kts | 179° |
| 2026-04-21 07:51 | 58.87236 | 5.63305 | 42 ft | 21 kts | 179° |
| 2026-04-21 07:52 | 58.87099 | 5.63309 | 43 ft | 16 kts | 179° |
| 2026-04-21 07:52 | 58.87002 | 5.63375 | 44 ft | 14 kts | 146° |
| 2026-04-21 07:52 | 58.86953 | 5.63527 | 45 ft | 13 kts | 97° |
| 2026-04-21 07:52 | 58.86952 | 5.63611 | 45 ft | 0 kts | 90° |
| 2026-04-21 07:53 | 58.86953 | 5.63690 | 44 ft | 13 kts | 88° |
| 2026-04-21 07:53 | 58.87013 | 5.63802 | 42 ft | 14 kts | 14° |
| 2026-04-21 07:54 | 58.87105 | 5.63799 | 43 ft | 14 kts | 359° |
| 2026-04-21 07:54 | 58.87372 | 5.63791 | 45 ft | 75 kts | 359° |
| 2026-04-21 07:54 | 58.88122 | 5.63770 | 38 ft | 137 kts | 359° |
| 2026-04-21 07:54 | 58.89190 | 5.63746 | 355 ft | 158 kts | 359° |
| 2026-04-21 07:55 | 58.90292 | 5.63722 | 1039 ft | 160 kts | 359° |
| 2026-04-21 07:55 | 58.91432 | 5.63699 | 1563 ft | 173 kts | 359° |
| 2026-04-21 07:55 | 58.92693 | 5.63673 | 1940 ft | 190 kts | 359° |
| 2026-04-21 07:55 | 58.93618 | 5.63649 | 2157 ft | 205 kts | 359° |
| 2026-04-21 07:56 | 58.95141 | 5.63593 | 2530 ft | 232 kts | 359° |
| 2026-04-21 07:56 | 58.96811 | 5.63534 | 3304 ft | 244 kts | 359° |
| 2026-04-21 07:56 | 58.98529 | 5.63477 | 4226 ft | 251 kts | 358° |
| 2026-04-21 07:56 | 59.00293 | 5.63404 | 5141 ft | 257 kts | 358° |
| 2026-04-21 07:57 | 59.02098 | 5.63318 | 6064 ft | 261 kts | 358° |
| 2026-04-21 07:57 | 59.03928 | 5.63202 | 6981 ft | 266 kts | 356° |
| 2026-04-21 07:57 | 59.05700 | 5.62143 | 7777 ft | 273 kts | 329° |
| 2026-04-21 07:57 | 59.07032 | 5.59502 | 8602 ft | 280 kts | 300° |
| 2026-04-21 07:58 | 59.07579 | 5.55848 | 9388 ft | 289 kts | 273° |
| 2026-04-21 07:58 | 59.07448 | 5.51921 | 10197 ft | 295 kts | 257° |
| 2026-04-21 07:58 | 59.06586 | 5.48303 | 10936 ft | 299 kts | 231° |
| 2026-04-21 07:58 | 59.04997 | 5.45713 | 11615 ft | 306 kts | 207° |
| 2026-04-21 07:59 | 59.02883 | 5.44685 | 11802 ft | 325 kts | 178° |
| 2026-04-21 07:59 | 59.00553 | 5.44880 | 12127 ft | 343 kts | 175° |